sensor_id;sensor_type;location;lat;lon;timestamp;P1;durP1;ratioP1;P2;durP2;ratioP2
46753;SDS011;32500;50.620;3.400;2024-03-22T00:01:52;162.40;;;63.67;;
46753;SDS011;32500;50.620;3.400;2024-03-22T00:04:19;163.50;;;64.35;;
46753;SDS011;32500;50.620;3.400;2024-03-22T00:06:45;164.25;;;65.10;;
46753;SDS011;32500;50.620;3.400;2024-03-22T00:09:13;163.18;;;63.70;;
46753;SDS011;32500;50.620;3.400;2024-03-22T00:11:39;162.45;;;63.45;;
46753;SDS011;32500;50.620;3.400;2024-03-22T00:14:06;161.68;;;63.20;;
46753;SDS011;32500;50.620;3.400;2024-03-22T00:16:32;163.07;;;63.67;;
46753;SDS011;32500;50.620;3.400;2024-03-22T00:18:58;162.80;;;64.30;;
46753;SDS011;32500;50.620;3.400;2024-03-22T00:21:24;163.57;;;64.03;;
46753;SDS011;32500;50.620;3.400;2024-03-22T00:23:50;165.00;;;63.97;;
46753;SDS011;32500;50.620;3.400;2024-03-22T00:26:15;163.77;;;64.68;;
46753;SDS011;32500;50.620;3.400;2024-03-22T00:28:41;164.30;;;64.05;;
46753;SDS011;32500;50.620;3.400;2024-03-22T00:31:08;162.43;;;63.83;;
46753;SDS011;32500;50.620;3.400;2024-03-22T00:33:34;163.15;;;64.45;;
46753;SDS011;32500;50.620;3.400;2024-03-22T00:35:59;161.52;;;63.42;;
46753;SDS011;32500;50.620;3.400;2024-03-22T00:38:25;164.73;;;63.85;;
46753;SDS011;32500;50.620;3.400;2024-03-22T00:40:51;161.88;;;64.05;;
46753;SDS011;32500;50.620;3.400;2024-03-22T00:43:16;161.68;;;63.47;;
46753;SDS011;32500;50.620;3.400;2024-03-22T00:45:42;161.35;;;63.17;;
46753;SDS011;32500;50.620;3.400;2024-03-22T00:48:08;162.55;;;63.67;;
46753;SDS011;32500;50.620;3.400;2024-03-22T00:50:34;163.35;;;63.50;;
46753;SDS011;32500;50.620;3.400;2024-03-22T00:52:59;162.77;;;64.00;;
46753;SDS011;32500;50.620;3.400;2024-03-22T00:55:28;161.30;;;63.63;;
46753;SDS011;32500;50.620;3.400;2024-03-22T00:57:54;160.82;;;62.63;;
46753;SDS011;32500;50.620;3.400;2024-03-22T01:00:19;162.10;;;64.13;;
46753;SDS011;32500;50.620;3.400;2024-03-22T01:02:45;161.85;;;63.35;;
46753;SDS011;32500;50.620;3.400;2024-03-22T01:05:10;162.25;;;63.38;;
46753;SDS011;32500;50.620;3.400;2024-03-22T01:07:36;162.20;;;63.13;;
46753;SDS011;32500;50.620;3.400;2024-03-22T01:10:05;163.95;;;63.70;;
46753;SDS011;32500;50.620;3.400;2024-03-22T01:12:31;163.43;;;64.40;;
46753;SDS011;32500;50.620;3.400;2024-03-22T01:14:58;163.90;;;63.92;;
46753;SDS011;32500;50.620;3.400;2024-03-22T01:17:24;160.80;;;63.15;;
46753;SDS011;32500;50.620;3.400;2024-03-22T01:19:50;161.35;;;63.08;;
46753;SDS011;32500;50.620;3.400;2024-03-22T01:22:16;161.23;;;63.38;;
46753;SDS011;32500;50.620;3.400;2024-03-22T01:24:42;163.20;;;63.65;;
46753;SDS011;32500;50.620;3.400;2024-03-22T01:27:08;160.95;;;63.22;;
46753;SDS011;32500;50.620;3.400;2024-03-22T01:29:34;161.23;;;63.42;;
46753;SDS011;32500;50.620;3.400;2024-03-22T01:32:01;160.75;;;62.70;;
46753;SDS011;32500;50.620;3.400;2024-03-22T01:34:26;162.30;;;64.47;;
46753;SDS011;32500;50.620;3.400;2024-03-22T01:36:52;165.10;;;63.85;;
46753;SDS011;32500;50.620;3.400;2024-03-22T01:39:21;161.40;;;62.70;;
46753;SDS011;32500;50.620;3.400;2024-03-22T01:41:50;162.98;;;62.97;;
46753;SDS011;32500;50.620;3.400;2024-03-22T01:44:16;161.85;;;62.50;;
46753;SDS011;32500;50.620;3.400;2024-03-22T01:46:43;158.85;;;61.78;;
46753;SDS011;32500;50.620;3.400;2024-03-22T01:49:09;159.70;;;62.20;;
46753;SDS011;32500;50.620;3.400;2024-03-22T01:51:39;160.98;;;62.03;;
46753;SDS011;32500;50.620;3.400;2024-03-22T01:54:05;162.13;;;62.58;;
46753;SDS011;32500;50.620;3.400;2024-03-22T01:56:35;160.23;;;62.22;;
46753;SDS011;32500;50.620;3.400;2024-03-22T01:59:02;160.85;;;61.63;;
46753;SDS011;32500;50.620;3.400;2024-03-22T02:01:29;161.20;;;62.08;;
46753;SDS011;32500;50.620;3.400;2024-03-22T02:03:55;160.10;;;61.88;;
46753;SDS011;32500;50.620;3.400;2024-03-22T02:06:21;160.52;;;62.67;;
46753;SDS011;32500;50.620;3.400;2024-03-22T02:08:46;161.60;;;63.25;;
46753;SDS011;32500;50.620;3.400;2024-03-22T02:11:12;158.95;;;62.30;;
46753;SDS011;32500;50.620;3.400;2024-03-22T02:13:38;159.40;;;62.17;;
46753;SDS011;32500;50.620;3.400;2024-03-22T02:16:04;160.15;;;62.50;;
46753;SDS011;32500;50.620;3.400;2024-03-22T02:18:30;161.07;;;63.13;;
46753;SDS011;32500;50.620;3.400;2024-03-22T02:20:58;159.98;;;62.22;;
46753;SDS011;32500;50.620;3.400;2024-03-22T02:23:33;161.13;;;62.25;;
46753;SDS011;32500;50.620;3.400;2024-03-22T02:26:00;158.30;;;61.25;;
46753;SDS011;32500;50.620;3.400;2024-03-22T02:28:27;159.70;;;61.85;;
46753;SDS011;32500;50.620;3.400;2024-03-22T02:30:53;158.50;;;61.17;;
46753;SDS011;32500;50.620;3.400;2024-03-22T02:33:19;159.27;;;61.42;;
46753;SDS011;32500;50.620;3.400;2024-03-22T02:35:48;159.30;;;62.10;;
46753;SDS011;32500;50.620;3.400;2024-03-22T02:38:14;159.77;;;62.03;;
46753;SDS011;32500;50.620;3.400;2024-03-22T02:40:42;159.15;;;61.80;;
46753;SDS011;32500;50.620;3.400;2024-03-22T02:43:08;159.68;;;61.38;;
46753;SDS011;32500;50.620;3.400;2024-03-22T02:45:34;158.38;;;60.78;;
46753;SDS011;32500;50.620;3.400;2024-03-22T02:47:59;160.75;;;62.78;;
46753;SDS011;32500;50.620;3.400;2024-03-22T02:50:25;160.77;;;62.33;;
46753;SDS011;32500;50.620;3.400;2024-03-22T02:52:51;160.80;;;62.05;;
46753;SDS011;32500;50.620;3.400;2024-03-22T02:55:16;159.20;;;61.65;;
46753;SDS011;32500;50.620;3.400;2024-03-22T02:57:42;159.82;;;61.83;;
46753;SDS011;32500;50.620;3.400;2024-03-22T03:00:08;159.15;;;61.92;;
46753;SDS011;32500;50.620;3.400;2024-03-22T03:02:34;158.93;;;61.42;;
46753;SDS011;32500;50.620;3.400;2024-03-22T03:05:00;160.50;;;61.80;;
46753;SDS011;32500;50.620;3.400;2024-03-22T03:07:25;158.07;;;61.47;;
46753;SDS011;32500;50.620;3.400;2024-03-22T03:09:52;160.48;;;61.95;;
46753;SDS011;32500;50.620;3.400;2024-03-22T03:12:18;159.02;;;61.83;;
46753;SDS011;32500;50.620;3.400;2024-03-22T03:14:44;158.15;;;61.38;;
46753;SDS011;32500;50.620;3.400;2024-03-22T03:17:09;158.25;;;61.58;;
46753;SDS011;32500;50.620;3.400;2024-03-22T03:19:35;160.38;;;61.78;;
46753;SDS011;32500;50.620;3.400;2024-03-22T03:22:01;159.85;;;62.15;;
46753;SDS011;32500;50.620;3.400;2024-03-22T03:24:27;158.07;;;61.28;;
46753;SDS011;32500;50.620;3.400;2024-03-22T03:26:53;158.60;;;61.67;;
46753;SDS011;32500;50.620;3.400;2024-03-22T03:29:19;158.80;;;61.05;;
46753;SDS011;32500;50.620;3.400;2024-03-22T03:31:45;157.50;;;60.90;;
46753;SDS011;32500;50.620;3.400;2024-03-22T03:34:10;158.82;;;61.63;;
46753;SDS011;32500;50.620;3.400;2024-03-22T03:36:36;156.82;;;60.65;;
46753;SDS011;32500;50.620;3.400;2024-03-22T03:39:02;158.60;;;61.30;;
46753;SDS011;32500;50.620;3.400;2024-03-22T03:41:29;157.38;;;60.95;;
46753;SDS011;32500;50.620;3.400;2024-03-22T03:43:54;157.38;;;60.72;;
46753;SDS011;32500;50.620;3.400;2024-03-22T03:46:20;157.93;;;61.10;;
46753;SDS011;32500;50.620;3.400;2024-03-22T03:48:46;157.52;;;60.53;;
46753;SDS011;32500;50.620;3.400;2024-03-22T03:51:11;158.02;;;60.72;;
46753;SDS011;32500;50.620;3.400;2024-03-22T03:53:37;158.38;;;60.78;;
46753;SDS011;32500;50.620;3.400;2024-03-22T03:56:03;157.55;;;61.10;;
46753;SDS011;32500;50.620;3.400;2024-03-22T03:58:28;157.70;;;61.25;;
46753;SDS011;32500;50.620;3.400;2024-03-22T04:00:54;157.00;;;60.75;;
46753;SDS011;32500;50.620;3.400;2024-03-22T04:03:20;157.93;;;61.20;;
46753;SDS011;32500;50.620;3.400;2024-03-22T04:05:45;157.18;;;60.75;;
46753;SDS011;32500;50.620;3.400;2024-03-22T04:08:11;157.75;;;60.97;;
46753;SDS011;32500;50.620;3.400;2024-03-22T04:10:37;158.75;;;61.72;;
46753;SDS011;32500;50.620;3.400;2024-03-22T04:13:02;156.60;;;60.05;;
46753;SDS011;32500;50.620;3.400;2024-03-22T04:15:28;156.85;;;60.20;;
46753;SDS011;32500;50.620;3.400;2024-03-22T04:17:55;157.13;;;60.55;;
46753;SDS011;32500;50.620;3.400;2024-03-22T04:20:21;157.88;;;61.30;;
46753;SDS011;32500;50.620;3.400;2024-03-22T04:22:47;157.13;;;60.53;;
46753;SDS011;32500;50.620;3.400;2024-03-22T04:25:15;157.20;;;60.67;;
46753;SDS011;32500;50.620;3.400;2024-03-22T04:27:40;157.77;;;60.65;;
46753;SDS011;32500;50.620;3.400;2024-03-22T04:30:06;157.27;;;60.50;;
46753;SDS011;32500;50.620;3.400;2024-03-22T04:32:32;157.40;;;60.58;;
46753;SDS011;32500;50.620;3.400;2024-03-22T04:34:58;157.15;;;61.08;;
46753;SDS011;32500;50.620;3.400;2024-03-22T04:37:23;157.10;;;60.38;;
46753;SDS011;32500;50.620;3.400;2024-03-22T04:39:49;159.00;;;61.30;;
46753;SDS011;32500;50.620;3.400;2024-03-22T04:42:15;158.00;;;60.92;;
46753;SDS011;32500;50.620;3.400;2024-03-22T04:44:41;156.30;;;60.38;;
46753;SDS011;32500;50.620;3.400;2024-03-22T04:47:07;157.55;;;60.85;;
46753;SDS011;32500;50.620;3.400;2024-03-22T04:49:32;156.88;;;60.50;;
46753;SDS011;32500;50.620;3.400;2024-03-22T04:51:58;157.40;;;60.88;;
46753;SDS011;32500;50.620;3.400;2024-03-22T04:54:24;157.38;;;60.85;;
46753;SDS011;32500;50.620;3.400;2024-03-22T04:56:49;157.35;;;60.63;;
46753;SDS011;32500;50.620;3.400;2024-03-22T04:59:15;156.52;;;60.20;;
46753;SDS011;32500;50.620;3.400;2024-03-22T05:01:42;158.25;;;60.83;;
46753;SDS011;32500;50.620;3.400;2024-03-22T05:04:09;157.10;;;60.55;;
46753;SDS011;32500;50.620;3.400;2024-03-22T05:06:35;157.90;;;61.05;;
46753;SDS011;32500;50.620;3.400;2024-03-22T05:09:00;157.32;;;60.53;;
46753;SDS011;32500;50.620;3.400;2024-03-22T05:11:26;156.23;;;60.08;;
46753;SDS011;32500;50.620;3.400;2024-03-22T05:13:52;155.50;;;59.80;;
46753;SDS011;32500;50.620;3.400;2024-03-22T05:16:17;157.00;;;60.78;;
46753;SDS011;32500;50.620;3.400;2024-03-22T05:18:43;156.98;;;60.75;;
46753;SDS011;32500;50.620;3.400;2024-03-22T05:21:08;156.25;;;60.35;;
46753;SDS011;32500;50.620;3.400;2024-03-22T05:23:34;155.82;;;60.42;;
46753;SDS011;32500;50.620;3.400;2024-03-22T05:26:00;157.35;;;60.85;;
46753;SDS011;32500;50.620;3.400;2024-03-22T05:28:25;155.20;;;59.58;;
46753;SDS011;32500;50.620;3.400;2024-03-22T05:30:51;156.38;;;60.38;;
46753;SDS011;32500;50.620;3.400;2024-03-22T05:33:17;156.40;;;60.53;;
46753;SDS011;32500;50.620;3.400;2024-03-22T05:35:42;157.38;;;59.95;;
46753;SDS011;32500;50.620;3.400;2024-03-22T05:38:08;157.18;;;60.92;;
46753;SDS011;32500;50.620;3.400;2024-03-22T05:40:36;156.35;;;60.33;;
46753;SDS011;32500;50.620;3.400;2024-03-22T05:43:03;156.02;;;59.95;;
46753;SDS011;32500;50.620;3.400;2024-03-22T05:45:29;156.07;;;60.38;;
46753;SDS011;32500;50.620;3.400;2024-03-22T05:47:55;156.45;;;60.05;;
46753;SDS011;32500;50.620;3.400;2024-03-22T05:50:21;158.45;;;60.40;;
46753;SDS011;32500;50.620;3.400;2024-03-22T05:52:46;156.25;;;60.65;;
46753;SDS011;32500;50.620;3.400;2024-03-22T05:55:12;156.48;;;60.05;;
46753;SDS011;32500;50.620;3.400;2024-03-22T05:57:38;155.30;;;59.58;;
46753;SDS011;32500;50.620;3.400;2024-03-22T06:00:04;155.32;;;59.72;;
46753;SDS011;32500;50.620;3.400;2024-03-22T06:02:32;157.63;;;59.80;;
46753;SDS011;32500;50.620;3.400;2024-03-22T06:04:57;157.18;;;60.58;;
46753;SDS011;32500;50.620;3.400;2024-03-22T06:07:23;156.82;;;60.08;;
46753;SDS011;32500;50.620;3.400;2024-03-22T06:09:50;155.30;;;59.65;;
46753;SDS011;32500;50.620;3.400;2024-03-22T06:12:17;157.43;;;60.20;;
46753;SDS011;32500;50.620;3.400;2024-03-22T06:14:43;155.73;;;60.00;;
46753;SDS011;32500;50.620;3.400;2024-03-22T06:17:09;158.45;;;60.08;;
46753;SDS011;32500;50.620;3.400;2024-03-22T06:19:35;155.18;;;59.45;;
46753;SDS011;32500;50.620;3.400;2024-03-22T06:22:02;157.52;;;59.55;;
46753;SDS011;32500;50.620;3.400;2024-03-22T06:24:27;156.45;;;60.33;;
46753;SDS011;32500;50.620;3.400;2024-03-22T06:26:54;155.95;;;59.90;;
46753;SDS011;32500;50.620;3.400;2024-03-22T06:29:20;156.45;;;59.70;;
46753;SDS011;32500;50.620;3.400;2024-03-22T06:31:46;157.73;;;60.40;;
46753;SDS011;32500;50.620;3.400;2024-03-22T06:34:12;157.05;;;60.33;;
46753;SDS011;32500;50.620;3.400;2024-03-22T06:36:38;157.13;;;60.22;;
46753;SDS011;32500;50.620;3.400;2024-03-22T06:39:03;156.48;;;60.10;;
46753;SDS011;32500;50.620;3.400;2024-03-22T06:41:31;157.68;;;60.53;;
46753;SDS011;32500;50.620;3.400;2024-03-22T06:43:57;155.65;;;59.85;;
46753;SDS011;32500;50.620;3.400;2024-03-22T06:46:23;160.23;;;60.63;;
46753;SDS011;32500;50.620;3.400;2024-03-22T06:48:49;158.88;;;60.50;;
46753;SDS011;32500;50.620;3.400;2024-03-22T06:51:15;157.70;;;60.38;;
46753;SDS011;32500;50.620;3.400;2024-03-22T06:53:41;159.98;;;60.88;;
46753;SDS011;32500;50.620;3.400;2024-03-22T06:56:07;158.55;;;60.58;;
46753;SDS011;32500;50.620;3.400;2024-03-22T06:58:36;160.00;;;60.38;;
46753;SDS011;32500;50.620;3.400;2024-03-22T07:01:03;157.70;;;60.38;;
46753;SDS011;32500;50.620;3.400;2024-03-22T07:03:30;158.45;;;60.58;;
46753;SDS011;32500;50.620;3.400;2024-03-22T07:05:56;157.68;;;59.95;;
46753;SDS011;32500;50.620;3.400;2024-03-22T07:08:25;156.73;;;60.67;;
46753;SDS011;32500;50.620;3.400;2024-03-22T07:10:51;158.98;;;59.97;;
46753;SDS011;32500;50.620;3.400;2024-03-22T07:13:19;158.68;;;60.72;;
46753;SDS011;32500;50.620;3.400;2024-03-22T07:15:45;159.23;;;60.70;;
46753;SDS011;32500;50.620;3.400;2024-03-22T07:18:12;156.05;;;59.53;;
46753;SDS011;32500;50.620;3.400;2024-03-22T07:20:39;157.57;;;60.28;;
46753;SDS011;32500;50.620;3.400;2024-03-22T07:23:04;158.80;;;60.88;;
46753;SDS011;32500;50.620;3.400;2024-03-22T07:25:30;158.02;;;60.88;;
46753;SDS011;32500;50.620;3.400;2024-03-22T07:27:56;158.80;;;60.25;;
46753;SDS011;32500;50.620;3.400;2024-03-22T07:30:22;157.00;;;60.03;;
46753;SDS011;32500;50.620;3.400;2024-03-22T07:32:47;159.75;;;61.70;;
46753;SDS011;32500;50.620;3.400;2024-03-22T07:35:13;163.48;;;61.17;;
46753;SDS011;32500;50.620;3.400;2024-03-22T07:37:39;161.73;;;61.28;;
46753;SDS011;32500;50.620;3.400;2024-03-22T07:40:05;158.80;;;61.17;;
46753;SDS011;32500;50.620;3.400;2024-03-22T07:42:31;159.00;;;61.10;;
46753;SDS011;32500;50.620;3.400;2024-03-22T07:44:57;159.88;;;61.65;;
46753;SDS011;32500;50.620;3.400;2024-03-22T07:47:22;161.68;;;61.10;;
46753;SDS011;32500;50.620;3.400;2024-03-22T07:49:48;160.25;;;61.78;;
46753;SDS011;32500;50.620;3.400;2024-03-22T07:52:15;162.55;;;62.60;;
46753;SDS011;32500;50.620;3.400;2024-03-22T07:54:41;165.80;;;62.47;;
46753;SDS011;32500;50.620;3.400;2024-03-22T07:57:06;161.25;;;62.72;;
46753;SDS011;32500;50.620;3.400;2024-03-22T07:59:32;163.55;;;61.58;;
46753;SDS011;32500;50.620;3.400;2024-03-22T08:01:58;161.48;;;61.08;;
46753;SDS011;32500;50.620;3.400;2024-03-22T08:04:24;163.38;;;62.67;;
46753;SDS011;32500;50.620;3.400;2024-03-22T08:06:52;162.15;;;62.78;;
46753;SDS011;32500;50.620;3.400;2024-03-22T08:09:18;163.38;;;63.00;;
46753;SDS011;32500;50.620;3.400;2024-03-22T08:11:44;167.50;;;66.50;;
46753;SDS011;32500;50.620;3.400;2024-03-22T08:14:10;171.40;;;68.90;;
46753;SDS011;32500;50.620;3.400;2024-03-22T08:16:36;174.10;;;67.20;;
46753;SDS011;32500;50.620;3.400;2024-03-22T08:19:01;172.57;;;66.38;;
46753;SDS011;32500;50.620;3.400;2024-03-22T08:21:27;169.68;;;66.95;;
46753;SDS011;32500;50.620;3.400;2024-03-22T08:23:53;171.23;;;67.70;;
46753;SDS011;32500;50.620;3.400;2024-03-22T08:26:18;173.82;;;67.63;;
46753;SDS011;32500;50.620;3.400;2024-03-22T08:28:47;173.15;;;68.40;;
46753;SDS011;32500;50.620;3.400;2024-03-22T08:31:13;170.18;;;67.13;;
46753;SDS011;32500;50.620;3.400;2024-03-22T08:33:39;169.52;;;66.90;;
46753;SDS011;32500;50.620;3.400;2024-03-22T08:36:05;167.73;;;66.72;;
46753;SDS011;32500;50.620;3.400;2024-03-22T08:38:31;171.23;;;65.38;;
46753;SDS011;32500;50.620;3.400;2024-03-22T08:40:57;168.48;;;65.40;;
46753;SDS011;32500;50.620;3.400;2024-03-22T08:43:22;167.88;;;66.30;;
46753;SDS011;32500;50.620;3.400;2024-03-22T08:45:50;166.35;;;66.78;;
46753;SDS011;32500;50.620;3.400;2024-03-22T08:48:16;164.25;;;66.00;;
46753;SDS011;32500;50.620;3.400;2024-03-22T08:50:42;163.60;;;65.20;;
46753;SDS011;32500;50.620;3.400;2024-03-22T08:53:09;166.15;;;65.22;;
46753;SDS011;32500;50.620;3.400;2024-03-22T08:55:34;162.63;;;64.60;;
46753;SDS011;32500;50.620;3.400;2024-03-22T08:58:00;163.75;;;65.75;;
46753;SDS011;32500;50.620;3.400;2024-03-22T09:00:26;166.93;;;64.80;;
46753;SDS011;32500;50.620;3.400;2024-03-22T09:02:51;166.52;;;64.70;;
46753;SDS011;32500;50.620;3.400;2024-03-22T09:05:17;165.35;;;64.95;;
46753;SDS011;32500;50.620;3.400;2024-03-22T09:07:43;164.18;;;64.13;;
46753;SDS011;32500;50.620;3.400;2024-03-22T09:10:09;164.52;;;64.38;;
46753;SDS011;32500;50.620;3.400;2024-03-22T09:12:36;164.68;;;63.97;;
46753;SDS011;32500;50.620;3.400;2024-03-22T09:15:04;160.82;;;62.85;;
46753;SDS011;32500;50.620;3.400;2024-03-22T09:17:30;164.90;;;64.57;;
46753;SDS011;32500;50.620;3.400;2024-03-22T09:19:55;166.20;;;64.05;;
46753;SDS011;32500;50.620;3.400;2024-03-22T09:22:21;161.05;;;62.78;;
46753;SDS011;32500;50.620;3.400;2024-03-22T09:24:48;167.57;;;63.65;;
46753;SDS011;32500;50.620;3.400;2024-03-22T09:27:14;163.57;;;62.97;;
46753;SDS011;32500;50.620;3.400;2024-03-22T09:29:39;163.10;;;64.45;;
46753;SDS011;32500;50.620;3.400;2024-03-22T09:32:05;163.32;;;63.53;;
46753;SDS011;32500;50.620;3.400;2024-03-22T09:34:31;163.90;;;62.72;;
46753;SDS011;32500;50.620;3.400;2024-03-22T09:36:57;163.05;;;64.93;;
46753;SDS011;32500;50.620;3.400;2024-03-22T09:39:23;165.63;;;63.38;;
46753;SDS011;32500;50.620;3.400;2024-03-22T09:41:48;165.35;;;63.40;;
46753;SDS011;32500;50.620;3.400;2024-03-22T09:44:18;164.27;;;64.60;;
46753;SDS011;32500;50.620;3.400;2024-03-22T09:46:47;160.75;;;62.78;;
46753;SDS011;32500;50.620;3.400;2024-03-22T09:49:15;165.73;;;63.35;;
46753;SDS011;32500;50.620;3.400;2024-03-22T09:51:42;167.32;;;63.22;;
46753;SDS011;32500;50.620;3.400;2024-03-22T09:54:11;162.27;;;63.42;;
46753;SDS011;32500;50.620;3.400;2024-03-22T09:56:40;161.73;;;62.53;;
46753;SDS011;32500;50.620;3.400;2024-03-22T09:59:07;159.38;;;62.05;;
46753;SDS011;32500;50.620;3.400;2024-03-22T10:01:34;165.63;;;62.75;;
46753;SDS011;32500;50.620;3.400;2024-03-22T10:04:00;159.45;;;61.47;;
46753;SDS011;32500;50.620;3.400;2024-03-22T10:06:26;160.30;;;62.38;;
46753;SDS011;32500;50.620;3.400;2024-03-22T10:08:51;160.43;;;61.75;;
46753;SDS011;32500;50.620;3.400;2024-03-22T10:11:18;162.85;;;63.38;;
46753;SDS011;32500;50.620;3.400;2024-03-22T10:13:43;161.52;;;62.10;;
46753;SDS011;32500;50.620;3.400;2024-03-22T10:16:10;161.63;;;62.67;;
46753;SDS011;32500;50.620;3.400;2024-03-22T10:18:35;167.82;;;63.30;;
46753;SDS011;32500;50.620;3.400;2024-03-22T10:21:02;162.48;;;62.40;;
46753;SDS011;32500;50.620;3.400;2024-03-22T10:23:29;161.88;;;62.15;;
46753;SDS011;32500;50.620;3.400;2024-03-22T10:26:01;160.90;;;61.67;;
46753;SDS011;32500;50.620;3.400;2024-03-22T10:28:27;163.35;;;62.13;;
46753;SDS011;32500;50.620;3.400;2024-03-22T10:30:53;161.73;;;61.80;;
46753;SDS011;32500;50.620;3.400;2024-03-22T10:33:19;159.52;;;61.72;;
46753;SDS011;32500;50.620;3.400;2024-03-22T10:35:48;160.02;;;61.05;;
46753;SDS011;32500;50.620;3.400;2024-03-22T10:38:18;160.50;;;62.28;;
46753;SDS011;32500;50.620;3.400;2024-03-22T10:40:44;160.85;;;60.92;;
46753;SDS011;32500;50.620;3.400;2024-03-22T10:43:14;160.63;;;60.67;;
46753;SDS011;32500;50.620;3.400;2024-03-22T10:45:41;159.88;;;61.17;;
46753;SDS011;32500;50.620;3.400;2024-03-22T10:48:10;160.55;;;60.97;;
46753;SDS011;32500;50.620;3.400;2024-03-22T10:50:39;160.77;;;61.42;;
46753;SDS011;32500;50.620;3.400;2024-03-22T10:53:16;159.15;;;60.55;;
46753;SDS011;32500;50.620;3.400;2024-03-22T10:55:47;157.95;;;60.08;;
46753;SDS011;32500;50.620;3.400;2024-03-22T10:58:17;156.77;;;60.40;;
46753;SDS011;32500;50.620;3.400;2024-03-22T11:00:46;158.98;;;59.83;;
46753;SDS011;32500;50.620;3.400;2024-03-22T11:03:15;156.85;;;59.78;;
46753;SDS011;32500;50.620;3.400;2024-03-22T11:05:46;161.82;;;60.70;;
46753;SDS011;32500;50.620;3.400;2024-03-22T11:08:13;161.38;;;60.67;;
46753;SDS011;32500;50.620;3.400;2024-03-22T11:10:47;155.60;;;59.92;;
46753;SDS011;32500;50.620;3.400;2024-03-22T11:13:15;156.95;;;60.00;;
46753;SDS011;32500;50.620;3.400;2024-03-22T11:15:42;164.10;;;60.50;;
46753;SDS011;32500;50.620;3.400;2024-03-22T11:18:08;158.60;;;60.25;;
46753;SDS011;32500;50.620;3.400;2024-03-22T11:20:37;156.95;;;60.28;;
46753;SDS011;32500;50.620;3.400;2024-03-22T11:23:03;157.60;;;60.17;;
46753;SDS011;32500;50.620;3.400;2024-03-22T11:25:33;158.55;;;60.15;;
46753;SDS011;32500;50.620;3.400;2024-03-22T11:27:59;157.77;;;60.08;;
46753;SDS011;32500;50.620;3.400;2024-03-22T11:30:31;159.65;;;60.33;;
46753;SDS011;32500;50.620;3.400;2024-03-22T11:33:00;158.95;;;60.30;;
46753;SDS011;32500;50.620;3.400;2024-03-22T11:35:27;157.27;;;60.00;;
46753;SDS011;32500;50.620;3.400;2024-03-22T11:37:52;158.70;;;60.53;;
46753;SDS011;32500;50.620;3.400;2024-03-22T11:40:18;158.95;;;60.30;;
46753;SDS011;32500;50.620;3.400;2024-03-22T11:42:45;157.43;;;60.63;;
46753;SDS011;32500;50.620;3.400;2024-03-22T11:45:14;156.88;;;59.60;;
46753;SDS011;32500;50.620;3.400;2024-03-22T11:47:43;163.18;;;60.97;;
46753;SDS011;32500;50.620;3.400;2024-03-22T11:50:09;162.68;;;60.30;;
46753;SDS011;32500;50.620;3.400;2024-03-22T11:52:38;160.57;;;61.10;;
46753;SDS011;32500;50.620;3.400;2024-03-22T11:55:12;160.68;;;60.45;;
46753;SDS011;32500;50.620;3.400;2024-03-22T11:57:38;156.68;;;60.10;;
46753;SDS011;32500;50.620;3.400;2024-03-22T12:00:03;159.35;;;60.38;;
46753;SDS011;32500;50.620;3.400;2024-03-22T12:02:35;160.23;;;60.53;;
46753;SDS011;32500;50.620;3.400;2024-03-22T12:05:01;160.15;;;60.15;;
46753;SDS011;32500;50.620;3.400;2024-03-22T12:07:28;157.23;;;59.97;;
46753;SDS011;32500;50.620;3.400;2024-03-22T12:09:54;162.18;;;60.17;;
46753;SDS011;32500;50.620;3.400;2024-03-22T12:12:20;163.13;;;60.55;;
46753;SDS011;32500;50.620;3.400;2024-03-22T12:14:47;159.80;;;60.28;;
46753;SDS011;32500;50.620;3.400;2024-03-22T12:17:15;157.70;;;59.97;;
46753;SDS011;32500;50.620;3.400;2024-03-22T12:19:41;156.57;;;60.03;;
46753;SDS011;32500;50.620;3.400;2024-03-22T12:22:06;158.68;;;60.50;;
46753;SDS011;32500;50.620;3.400;2024-03-22T12:24:32;155.68;;;60.00;;
46753;SDS011;32500;50.620;3.400;2024-03-22T12:26:58;159.68;;;60.17;;
46753;SDS011;32500;50.620;3.400;2024-03-22T12:29:24;158.20;;;60.50;;
46753;SDS011;32500;50.620;3.400;2024-03-22T12:31:50;158.52;;;60.03;;
46753;SDS011;32500;50.620;3.400;2024-03-22T12:34:16;158.68;;;60.10;;
46753;SDS011;32500;50.620;3.400;2024-03-22T12:36:42;157.15;;;59.95;;
46753;SDS011;32500;50.620;3.400;2024-03-22T12:39:08;157.85;;;60.33;;
46753;SDS011;32500;50.620;3.400;2024-03-22T12:41:34;156.85;;;59.72;;
46753;SDS011;32500;50.620;3.400;2024-03-22T12:44:00;160.30;;;59.97;;
46753;SDS011;32500;50.620;3.400;2024-03-22T12:46:26;158.77;;;59.90;;
46753;SDS011;32500;50.620;3.400;2024-03-22T12:48:52;155.65;;;60.10;;
46753;SDS011;32500;50.620;3.400;2024-03-22T12:51:19;157.02;;;60.20;;
46753;SDS011;32500;50.620;3.400;2024-03-22T12:53:45;155.40;;;59.45;;
46753;SDS011;32500;50.620;3.400;2024-03-22T12:56:11;159.10;;;60.53;;
46753;SDS011;32500;50.620;3.400;2024-03-22T12:58:37;159.07;;;59.58;;
46753;SDS011;32500;50.620;3.400;2024-03-22T13:01:02;162.18;;;60.13;;
46753;SDS011;32500;50.620;3.400;2024-03-22T13:03:30;156.60;;;59.25;;
46753;SDS011;32500;50.620;3.400;2024-03-22T13:05:59;160.98;;;60.13;;
46753;SDS011;32500;50.620;3.400;2024-03-22T13:08:24;160.18;;;60.65;;
46753;SDS011;32500;50.620;3.400;2024-03-22T13:10:50;158.32;;;59.85;;
46753;SDS011;32500;50.620;3.400;2024-03-22T13:13:17;164.35;;;60.67;;
46753;SDS011;32500;50.620;3.400;2024-03-22T13:15:43;157.73;;;60.30;;
46753;SDS011;32500;50.620;3.400;2024-03-22T13:18:09;160.35;;;60.28;;
46753;SDS011;32500;50.620;3.400;2024-03-22T13:20:35;158.23;;;59.40;;
46753;SDS011;32500;50.620;3.400;2024-03-22T13:23:00;155.27;;;59.28;;
46753;SDS011;32500;50.620;3.400;2024-03-22T13:25:26;158.10;;;59.55;;
46753;SDS011;32500;50.620;3.400;2024-03-22T13:27:52;157.25;;;59.67;;
46753;SDS011;32500;50.620;3.400;2024-03-22T13:30:18;157.77;;;59.67;;
46753;SDS011;32500;50.620;3.400;2024-03-22T13:32:44;158.85;;;60.10;;
46753;SDS011;32500;50.620;3.400;2024-03-22T13:35:10;159.00;;;58.90;;
46753;SDS011;32500;50.620;3.400;2024-03-22T13:37:36;161.68;;;60.10;;
46753;SDS011;32500;50.620;3.400;2024-03-22T13:40:02;162.38;;;59.25;;
46753;SDS011;32500;50.620;3.400;2024-03-22T13:42:28;156.38;;;58.55;;
46753;SDS011;32500;50.620;3.400;2024-03-22T13:44:53;157.00;;;59.83;;
46753;SDS011;32500;50.620;3.400;2024-03-22T13:47:21;156.80;;;59.63;;
46753;SDS011;32500;50.620;3.400;2024-03-22T13:49:47;160.50;;;60.67;;
46753;SDS011;32500;50.620;3.400;2024-03-22T13:52:13;159.65;;;59.80;;
46753;SDS011;32500;50.620;3.400;2024-03-22T13:54:39;161.15;;;59.92;;
46753;SDS011;32500;50.620;3.400;2024-03-22T13:57:05;159.23;;;60.00;;
46753;SDS011;32500;50.620;3.400;2024-03-22T13:59:31;159.95;;;60.80;;
46753;SDS011;32500;50.620;3.400;2024-03-22T14:01:56;160.27;;;59.35;;
46753;SDS011;32500;50.620;3.400;2024-03-22T14:04:23;161.27;;;59.45;;